Egegik, AK (99579)

12:21 AM AKDT on September 23, 2014 (GMT -0800)
Egegik | Change Station
CLOSE
Current Station
Airport
Location: Egegik,
Elevation: 92 ft
Nearby Weather Stations

Elev 92 ft 58.19 °N, 157.39 °W | Updated 5 minutes ago

Clear
Clear
39 °F
Feels Like 36 °F
N
5
Wind Variable Wind from West

Today
High -- | Low -- °F
--% Chance of Precip.
Yesterday
High -- | Low -- °F
Precip. -- in
8:16 AM 8:24 PM
Waning Crescent, 1% visible
Pressure 29.90 in
Visibility 10.0 miles
Clouds Clear
Windchill 36 °F
Dew Point 34 °F
Humidity 81%
Rainfall 0.00 in
Snow Depth Not available.
UV 0 out of 12
Pollen Not available.
Air Quality Not available.
Flu Activity Not available.
METAR PAII 230816Z AUTO 28004KT 10SM CLR 04/01 A2990 RMK AO1

More Conditions Fewer Conditions

Pressure 29.90 in
Visibility 10.0 miles
Clouds Clear
Windchill 36 °F
Dew Point 34 °F
Humidity 81%
Rainfall 0.00 in
Snow Depth Not available.
UV 0 out of 12
Pollen Not available.
Air Quality Not available.
Flu Activity Not available.
METAR PAII 230816Z AUTO 28004KT 10SM CLR 04/01 A2990 RMK AO1

More Conditions Fewer Conditions

10-Day Weather Forecast

Almanac

Astronomy

Sep. 23, 2014 Rise Set
Actual Time 8:16 AM AKDT 8:24 PM AKDT
Civil Twilight 7:36 AM AKDT 9:03 PM AKDT
Nautical Twilight 6:49 AM AKDT 9:50 PM AKDT
Astronomical Twilight 5:59 AM AKDT 10:40 PM AKDT
Moon 7:51 AM AKDT 8:03 PM AKDT
Length of Visible Light 13h 27m
Length of Day
12h 08m
Tomorrow will be 5m 1s shorter.
Waning Crescent, 1% of the Moon is Illuminated
Today
Waning Crescent
Sep 24
New
Oct 1
First Quarter
Oct 8
Full
Oct 15
Last Quarter

Community

WunderPhotos

Upload Photos

1,755,632 photos uploaded!

Nearby

Snow Depth

Station Depth Elevation
Imnaviat Creek 4 in 3050 ft
Mcneil Canyon 1 in 1320 ft
MF Bradley River 2 in 2300 ft
Susitna Valley High 2 in 375 ft
Pargon Creek 2 in 300 ft

Earthquake Activity

City Distance Mag. Time & Date
No recent earthquake activity has been reported nearby.
Minimum magnitude displayed is 2.5.

Coastal Water Temperatures

Place Temperature
No Stations Reporting

Nearby Weather Stations